createdAt,value
2018-03-14T00:00:09.209Z,8.91
2018-03-14T00:00:35.367Z,8.94
2018-03-14T00:01:01.500Z,8.94
2018-03-14T00:01:27.654Z,8.91
2018-03-14T00:01:53.829Z,8.85
2018-03-14T00:02:19.964Z,8.91
2018-03-14T00:02:46.120Z,8.84
2018-03-14T00:03:12.251Z,8.88
2018-03-14T00:03:38.387Z,8.92
2018-03-14T00:04:04.523Z,8.88
2018-03-14T00:04:30.666Z,8.85
2018-03-14T00:04:56.812Z,8.79
2018-03-14T00:05:22.979Z,8.91
2018-03-14T00:05:49.119Z,8.94
2018-03-14T00:06:15.262Z,8.89
2018-03-14T00:06:41.405Z,8.95
2018-03-14T00:07:07.545Z,8.89
2018-03-14T00:07:33.709Z,8.99
2018-03-14T00:07:59.843Z,8.84
2018-03-14T00:08:25.981Z,8.91
2018-03-14T00:08:52.125Z,8.84
2018-03-14T00:09:18.287Z,8.84
2018-03-14T00:09:44.451Z,8.85
2018-03-14T00:10:10.583Z,8.87
2018-03-14T00:10:36.723Z,8.85
2018-03-14T00:11:02.888Z,8.81
2018-03-14T00:11:29.015Z,8.84
2018-03-14T00:11:55.159Z,8.82
2018-03-14T00:12:21.306Z,8.76
2018-03-14T00:12:47.470Z,8.79
2018-03-14T00:13:13.605Z,8.78
2018-03-14T00:13:39.749Z,8.88
2018-03-14T00:14:05.882Z,8.89
2018-03-14T00:14:32.019Z,8.85
2018-03-14T00:14:58.182Z,8.82
2018-03-14T00:15:24.347Z,8.84
2018-03-14T00:15:50.481Z,8.79
2018-03-14T00:16:16.616Z,8.88
2018-03-14T00:16:42.755Z,8.87
2018-03-14T00:17:08.912Z,8.84
2018-03-14T00:17:35.043Z,8.87
2018-03-14T00:18:01.187Z,8.87
2018-03-14T00:18:27.318Z,8.82
2018-03-14T00:18:53.455Z,8.74
2018-03-14T00:19:19.630Z,8.84
2018-03-14T00:19:45.726Z,8.85
2018-03-14T00:20:11.867Z,8.88
2018-03-14T00:20:38.024Z,8.82
2018-03-14T00:21:04.162Z,8.88
2018-03-14T00:21:30.297Z,8.87
2018-03-14T00:21:56.437Z,8.87
2018-03-14T00:22:22.571Z,8.85
2018-03-14T00:22:48.714Z,8.89
2018-03-14T00:23:14.848Z,8.87
2018-03-14T00:23:40.983Z,8.95
2018-03-14T00:24:07.119Z,8.91
2018-03-14T00:24:33.261Z,8.85
2018-03-14T00:24:59.396Z,8.78
2018-03-14T00:25:25.537Z,8.87
2018-03-14T00:25:51.702Z,8.87
2018-03-14T00:26:17.835Z,8.82
2018-03-14T00:26:43.994Z,8.92
2018-03-14T00:27:10.124Z,8.78
2018-03-14T00:27:36.267Z,8.81
2018-03-14T00:28:02.407Z,8.84
2018-03-14T00:28:28.542Z,8.81
2018-03-14T00:28:54.681Z,8.87
2018-03-14T00:29:20.819Z,8.94
2018-03-14T00:29:46.947Z,8.79
2018-03-14T00:30:13.084Z,8.94
2018-03-14T00:30:39.211Z,8.82
2018-03-14T00:31:05.351Z,8.92
2018-03-14T00:31:31.475Z,8.89
2018-03-14T00:31:57.597Z,8.85
2018-03-14T00:32:23.708Z,8.89
2018-03-14T00:32:49.830Z,8.94
2018-03-14T00:33:15.951Z,8.94
2018-03-14T00:33:42.072Z,8.87
2018-03-14T00:34:08.194Z,8.87
2018-03-14T00:34:34.320Z,8.84
2018-03-14T00:35:00.438Z,8.87
2018-03-14T00:35:26.566Z,8.97
2018-03-14T00:35:52.681Z,8.99
2018-03-14T00:36:18.797Z,8.87
2018-03-14T00:36:44.918Z,8.97
2018-03-14T00:37:11.036Z,8.89
2018-03-14T00:37:37.155Z,8.88
2018-03-14T00:38:03.294Z,8.92
2018-03-14T00:38:29.409Z,8.84
2018-03-14T00:38:55.525Z,8.82
2018-03-14T00:39:21.660Z,8.82
2018-03-14T00:39:47.802Z,8.84
2018-03-14T00:40:13.919Z,8.79
2018-03-14T00:40:40.059Z,8.73
2018-03-14T00:41:06.175Z,8.78
2018-03-14T00:41:32.292Z,8.73
2018-03-14T00:41:58.415Z,8.76
2018-03-14T00:42:24.530Z,8.82
2018-03-14T00:42:50.671Z,8.85
2018-03-14T00:43:16.796Z,8.78
2018-03-14T00:43:42.910Z,8.84
2018-03-14T00:44:09.044Z,8.84
2018-03-14T00:44:35.171Z,8.91
2018-03-14T00:45:01.292Z,8.87
2018-03-14T00:45:27.402Z,8.87
2018-03-14T00:45:53.518Z,8.88
2018-03-14T00:46:19.645Z,8.85
2018-03-14T00:46:45.767Z,8.89
2018-03-14T00:47:11.883Z,8.87
2018-03-14T00:47:37.997Z,8.85
2018-03-14T00:48:04.119Z,8.94
2018-03-14T00:48:30.244Z,8.89
2018-03-14T00:48:56.358Z,8.85
2018-03-14T00:49:22.483Z,8.89
2018-03-14T00:49:48.621Z,8.87
2018-03-14T00:50:14.744Z,8.85
2018-03-14T00:50:40.856Z,8.84
2018-03-14T00:51:06.983Z,8.91
2018-03-14T00:51:33.098Z,8.94
2018-03-14T00:51:59.216Z,8.81
2018-03-14T00:52:25.337Z,8.87
2018-03-14T00:52:51.454Z,8.78
2018-03-14T00:53:17.574Z,8.84
2018-03-14T00:53:43.689Z,8.78
2018-03-14T00:54:09.812Z,8.85
2018-03-14T00:54:35.931Z,8.84
2018-03-14T00:55:02.072Z,8.84
2018-03-14T00:55:28.191Z,8.89
2018-03-14T00:55:54.315Z,8.85
2018-03-14T00:56:20.427Z,8.91
2018-03-14T00:56:46.547Z,8.84
2018-03-14T00:57:12.661Z,8.85
2018-03-14T00:57:38.799Z,8.79
2018-03-14T00:58:04.919Z,8.89
2018-03-14T00:58:31.041Z,8.84
2018-03-14T00:58:57.167Z,8.85
2018-03-14T00:59:23.287Z,8.79
2018-03-14T00:59:49.404Z,8.87
2018-03-14T01:00:15.518Z,8.76
2018-03-14T01:00:41.639Z,8.87
2018-03-14T01:01:07.759Z,8.74
2018-03-14T01:01:33.875Z,8.85
2018-03-14T01:01:59.995Z,8.79
2018-03-14T01:02:26.118Z,8.84
2018-03-14T01:02:52.234Z,8.78
2018-03-14T01:03:18.357Z,8.85
2018-03-14T01:03:44.474Z,8.82
2018-03-14T01:04:10.595Z,8.82
2018-03-14T01:04:36.711Z,8.82
2018-03-14T01:05:02.827Z,8.73
2018-03-14T01:05:28.952Z,8.81
2018-03-14T01:05:55.074Z,8.81
2018-03-14T01:06:21.190Z,8.73
2018-03-14T01:06:47.307Z,8.81
2018-03-14T01:07:13.429Z,8.79
2018-03-14T01:07:39.544Z,8.82
2018-03-14T01:08:05.671Z,8.87
2018-03-14T01:08:31.791Z,8.82
2018-03-14T01:08:57.904Z,8.78
2018-03-14T01:09:24.028Z,8.74
2018-03-14T01:09:50.143Z,8.78
2018-03-14T01:10:16.283Z,8.76
2018-03-14T01:10:42.400Z,8.85
2018-03-14T01:11:08.519Z,8.81
2018-03-14T01:11:34.638Z,8.87
2018-03-14T01:12:00.757Z,8.88
2018-03-14T01:12:26.879Z,8.81
2018-03-14T01:12:52.998Z,8.84
2018-03-14T01:13:19.119Z,8.85
2018-03-14T01:13:45.229Z,8.84
2018-03-14T01:14:11.457Z,8.84
2018-03-14T01:14:37.467Z,8.87
2018-03-14T01:15:03.616Z,8.82
2018-03-14T01:15:29.730Z,8.88
2018-03-14T01:15:55.873Z,8.87
2018-03-14T01:16:21.996Z,8.82
2018-03-14T01:16:48.135Z,8.85
2018-03-14T01:17:14.263Z,8.92
2018-03-14T01:17:40.393Z,8.91
2018-03-14T01:18:06.516Z,8.76
2018-03-14T01:18:32.642Z,8.82
2018-03-14T01:18:58.756Z,8.76
2018-03-14T01:19:24.885Z,8.76
2018-03-14T01:19:51.008Z,8.79
2018-03-14T01:20:17.119Z,8.78
2018-03-14T01:20:43.230Z,8.85
2018-03-14T01:21:09.369Z,8.85
2018-03-14T01:21:35.491Z,8.85
2018-03-14T01:22:01.619Z,8.82
2018-03-14T01:22:27.763Z,8.73
2018-03-14T01:22:54.052Z,8.82
2018-03-14T01:23:20.558Z,8.79
2018-03-14T01:23:46.628Z,8.82
2018-03-14T01:24:12.744Z,8.79
2018-03-14T01:24:38.862Z,8.79
2018-03-14T01:25:04.982Z,8.81
2018-03-14T01:25:31.122Z,8.78
2018-03-14T01:25:57.237Z,8.92
2018-03-14T01:26:23.361Z,8.74
2018-03-14T01:26:49.477Z,8.74
2018-03-14T01:27:15.600Z,8.76
2018-03-14T01:27:41.715Z,8.73
2018-03-14T01:28:07.840Z,8.71
2018-03-14T01:28:33.984Z,8.74
2018-03-14T01:29:00.098Z,8.73
2018-03-14T01:29:26.219Z,8.71
2018-03-14T01:29:52.341Z,8.79
2018-03-14T01:30:18.479Z,8.81
2018-03-14T01:30:44.578Z,8.71
2018-03-14T01:31:10.734Z,8.78
2018-03-14T01:31:36.856Z,8.76
2018-03-14T01:32:02.992Z,8.78
2018-03-14T01:32:29.114Z,8.82
2018-03-14T01:32:55.237Z,8.85
2018-03-14T01:33:21.348Z,8.81
2018-03-14T01:33:47.470Z,8.74
2018-03-14T01:34:13.588Z,8.81
2018-03-14T01:34:39.723Z,8.78
2018-03-14T01:35:05.845Z,8.76
2018-03-14T01:35:31.967Z,8.78
2018-03-14T01:35:58.081Z,8.79
2018-03-14T01:36:24.206Z,8.84
2018-03-14T01:36:50.324Z,8.76
2018-03-14T01:37:16.447Z,8.78
2018-03-14T01:37:42.572Z,8.78
2018-03-14T01:38:08.684Z,8.78
2018-03-14T01:38:34.807Z,8.85
2018-03-14T01:39:00.930Z,8.88
2018-03-14T01:39:27.067Z,8.79
2018-03-14T01:39:53.184Z,8.81
2018-03-14T01:40:19.304Z,8.73
2018-03-14T01:40:45.428Z,8.82
2018-03-14T01:41:11.541Z,8.84
2018-03-14T01:41:37.656Z,8.92
2018-03-14T01:42:03.776Z,8.85
2018-03-14T01:42:29.901Z,8.78
2018-03-14T01:42:56.015Z,8.81
2018-03-14T01:43:22.166Z,8.74
2018-03-14T01:43:48.282Z,8.78
2018-03-14T01:44:14.404Z,8.73
2018-03-14T01:44:40.519Z,8.74
2018-03-14T01:45:06.643Z,8.73
2018-03-14T01:45:32.756Z,8.79
2018-03-14T01:45:58.879Z,8.78
2018-03-14T01:46:25.001Z,8.74
2018-03-14T01:46:51.136Z,8.74
2018-03-14T01:47:17.261Z,8.76
2018-03-14T01:47:43.379Z,8.81
2018-03-14T01:48:09.502Z,8.74
2018-03-14T01:48:35.618Z,8.78
2018-03-14T01:49:01.780Z,8.78
2018-03-14T01:49:27.853Z,8.7
2018-03-14T01:49:53.974Z,8.71
2018-03-14T01:50:20.096Z,8.76
2018-03-14T01:50:46.211Z,8.7
2018-03-14T01:51:12.335Z,8.67
2018-03-14T01:51:38.446Z,8.71
2018-03-14T01:52:04.576Z,8.67
2018-03-14T01:52:30.693Z,8.67
2018-03-14T01:52:56.808Z,8.67
2018-03-14T01:53:22.930Z,8.74
2018-03-14T01:53:49.051Z,8.71
2018-03-14T01:54:15.167Z,8.7
2018-03-14T01:54:41.291Z,8.63
2018-03-14T01:55:07.406Z,8.71
2018-03-14T01:55:33.531Z,8.74
2018-03-14T01:55:59.646Z,8.76
2018-03-14T01:56:25.786Z,8.81
2018-03-14T01:56:51.923Z,8.79
2018-03-14T01:57:18.038Z,8.79
2018-03-14T01:57:44.162Z,8.78
2018-03-14T01:58:10.281Z,8.78
2018-03-14T01:58:36.399Z,8.74
2018-03-14T01:59:02.519Z,8.73
2018-03-14T01:59:28.658Z,8.73
2018-03-14T01:59:54.776Z,8.74
2018-03-14T02:00:20.917Z,8.73
2018-03-14T02:00:47.036Z,8.71
2018-03-14T02:01:13.154Z,8.74
2018-03-14T02:01:39.295Z,8.76
2018-03-14T02:02:05.415Z,8.7
2018-03-14T02:02:31.529Z,8.78
2018-03-14T02:02:57.652Z,8.79
2018-03-14T02:03:23.773Z,8.71
2018-03-14T02:03:49.891Z,8.7
2018-03-14T02:04:16.011Z,8.74
2018-03-14T02:04:42.123Z,8.76
2018-03-14T02:05:08.241Z,8.7
2018-03-14T02:05:34.361Z,8.73
2018-03-14T02:06:00.483Z,8.73
2018-03-14T02:06:26.602Z,8.71
2018-03-14T02:06:52.760Z,8.78
2018-03-14T02:07:18.880Z,8.76
2018-03-14T02:07:44.999Z,8.79
2018-03-14T02:08:11.120Z,8.76
2018-03-14T02:08:37.242Z,8.74
2018-03-14T02:09:03.355Z,8.79
2018-03-14T02:09:29.478Z,8.74
2018-03-14T02:09:55.594Z,8.74
2018-03-14T02:10:21.712Z,8.84
2018-03-14T02:10:47.831Z,8.74
2018-03-14T02:11:13.952Z,8.79
2018-03-14T02:11:40.075Z,8.84
2018-03-14T02:12:06.190Z,8.76
2018-03-14T02:12:32.312Z,8.81
2018-03-14T02:12:58.428Z,8.82
2018-03-14T02:13:24.548Z,8.73
2018-03-14T02:13:50.676Z,8.81
2018-03-14T02:14:16.810Z,8.74
2018-03-14T02:14:42.940Z,8.79
2018-03-14T02:15:09.072Z,8.78
2018-03-14T02:15:35.194Z,8.78
2018-03-14T02:16:01.312Z,8.73
2018-03-14T02:16:27.446Z,8.81
2018-03-14T02:16:53.566Z,8.74
2018-03-14T02:17:19.682Z,8.71
2018-03-14T02:17:45.804Z,8.7
2018-03-14T02:18:11.936Z,8.71
2018-03-14T02:18:38.053Z,8.69
2018-03-14T02:19:04.173Z,8.71
2018-03-14T02:19:30.289Z,8.7
2018-03-14T02:19:56.408Z,8.61
2018-03-14T02:20:22.532Z,8.64
2018-03-14T02:20:48.646Z,8.7
2018-03-14T02:21:14.774Z,8.71
2018-03-14T02:21:40.888Z,8.71
2018-03-14T02:22:07.014Z,8.74
2018-03-14T02:22:33.130Z,8.73
2018-03-14T02:22:59.250Z,8.74
2018-03-14T02:23:25.371Z,8.79
2018-03-14T02:23:51.490Z,8.74
2018-03-14T02:24:17.606Z,8.74
2018-03-14T02:24:43.726Z,8.76
2018-03-14T02:25:09.848Z,8.73
2018-03-14T02:25:35.967Z,8.7
2018-03-14T02:26:02.087Z,8.74
2018-03-14T02:26:28.210Z,8.74
2018-03-14T02:26:54.334Z,8.73
2018-03-14T02:27:20.447Z,8.74
2018-03-14T02:27:46.571Z,8.64
2018-03-14T02:28:12.711Z,8.78
2018-03-14T02:28:38.827Z,8.67
2018-03-14T02:29:04.942Z,8.6
2018-03-14T02:29:31.064Z,8.66
2018-03-14T02:29:57.181Z,8.66
2018-03-14T02:30:23.299Z,8.69
2018-03-14T02:30:49.425Z,8.67
2018-03-14T02:31:15.535Z,8.64
2018-03-14T02:31:41.657Z,8.73
2018-03-14T02:32:07.772Z,8.74
2018-03-14T02:32:33.894Z,8.69
2018-03-14T02:33:00.010Z,8.76
2018-03-14T02:33:26.133Z,8.67
2018-03-14T02:33:52.257Z,8.63
2018-03-14T02:34:18.371Z,8.61
2018-03-14T02:34:44.497Z,8.63
2018-03-14T02:35:10.615Z,8.63
2018-03-14T02:35:36.735Z,8.61
2018-03-14T02:36:02.846Z,8.64
2018-03-14T02:36:28.973Z,8.67
2018-03-14T02:36:55.086Z,8.66
2018-03-14T02:37:21.219Z,8.64
2018-03-14T02:37:47.340Z,8.64
2018-03-14T02:38:13.460Z,8.64
2018-03-14T02:38:39.577Z,8.64
2018-03-14T02:39:05.697Z,8.6
2018-03-14T02:39:31.815Z,8.63
2018-03-14T02:39:57.928Z,8.61
2018-03-14T02:40:24.052Z,8.66
2018-03-14T02:40:50.170Z,8.63
2018-03-14T02:41:16.290Z,8.66
2018-03-14T02:41:42.410Z,8.61
2018-03-14T02:42:08.526Z,8.56
2018-03-14T02:42:34.643Z,8.74
2018-03-14T02:43:00.781Z,8.7
2018-03-14T02:43:26.907Z,8.82
2018-03-14T02:43:53.020Z,8.73
2018-03-14T02:44:19.141Z,8.78
2018-03-14T02:44:45.282Z,8.73
2018-03-14T02:45:11.502Z,8.79
2018-03-14T02:45:37.547Z,8.81
2018-03-14T02:46:03.689Z,8.82
2018-03-14T02:46:29.803Z,8.84
2018-03-14T02:46:55.921Z,8.84
2018-03-14T02:47:22.047Z,8.81
2018-03-14T02:47:48.165Z,8.87
2018-03-14T02:48:14.281Z,8.87
2018-03-14T02:48:40.397Z,8.85
2018-03-14T02:49:06.515Z,8.92
2018-03-14T02:49:32.641Z,8.85
2018-03-14T02:49:58.759Z,8.85
2018-03-14T02:50:24.874Z,8.82
2018-03-14T02:50:50.998Z,8.73
2018-03-14T02:51:17.118Z,8.79
2018-03-14T02:51:43.237Z,8.78
2018-03-14T02:52:09.374Z,8.78
2018-03-14T02:52:35.496Z,8.74
2018-03-14T02:53:01.612Z,8.76
2018-03-14T02:53:27.734Z,8.71
2018-03-14T02:53:53.879Z,8.74
2018-03-14T02:54:20.000Z,8.74
2018-03-14T02:54:46.120Z,8.71
2018-03-14T02:55:12.288Z,8.73
2018-03-14T02:55:38.410Z,8.71
2018-03-14T02:56:04.522Z,8.6
2018-03-14T02:56:30.643Z,8.69
2018-03-14T02:56:56.763Z,8.67
2018-03-14T02:57:22.877Z,8.6
2018-03-14T02:57:49.000Z,8.69
2018-03-14T02:58:15.122Z,8.61
2018-03-14T02:58:41.236Z,8.6
2018-03-14T02:59:07.357Z,8.64
2018-03-14T02:59:33.480Z,8.61
2018-03-14T02:59:59.611Z,8.66
2018-03-14T03:00:25.730Z,8.61
2018-03-14T03:00:51.847Z,8.66
2018-03-14T03:01:17.991Z,8.6
2018-03-14T03:01:44.102Z,8.6
2018-03-14T03:02:10.222Z,8.6
2018-03-14T03:02:36.337Z,8.63
2018-03-14T03:03:02.486Z,8.63
2018-03-14T03:03:28.599Z,8.66
2018-03-14T03:03:54.723Z,8.61
2018-03-14T03:04:20.850Z,8.6
2018-03-14T03:04:46.960Z,8.56
2018-03-14T03:05:13.103Z,8.61
2018-03-14T03:05:39.221Z,8.61
2018-03-14T03:06:05.341Z,8.69
2018-03-14T03:06:31.463Z,8.66
2018-03-14T03:06:57.582Z,8.64
2018-03-14T03:07:23.704Z,8.67
2018-03-14T03:07:49.820Z,8.66
2018-03-14T03:08:15.935Z,8.63
2018-03-14T03:08:42.061Z,8.63
2018-03-14T03:09:08.179Z,8.66
2018-03-14T03:09:34.303Z,8.6
2018-03-14T03:10:00.419Z,8.64
2018-03-14T03:10:26.560Z,8.55
2018-03-14T03:10:52.679Z,8.63
2018-03-14T03:11:18.793Z,8.63
2018-03-14T03:11:44.918Z,8.69
2018-03-14T03:12:11.041Z,8.66
2018-03-14T03:12:37.160Z,8.66
2018-03-14T03:13:03.276Z,8.66
2018-03-14T03:13:29.391Z,8.61
2018-03-14T03:13:55.513Z,8.51
2018-03-14T03:14:21.630Z,8.58
2018-03-14T03:14:47.750Z,8.52
2018-03-14T03:15:13.866Z,8.61
2018-03-14T03:15:39.976Z,8.46
2018-03-14T03:16:06.104Z,8.55
2018-03-14T03:16:32.224Z,8.44
2018-03-14T03:16:58.340Z,8.56
2018-03-14T03:17:24.456Z,8.51
2018-03-14T03:17:50.576Z,8.61
2018-03-14T03:18:16.692Z,8.45
2018-03-14T03:18:42.821Z,8.56
2018-03-14T03:19:08.932Z,8.53
2018-03-14T03:19:35.074Z,8.55
2018-03-14T03:20:01.192Z,8.56
2018-03-14T03:20:27.314Z,8.55
2018-03-14T03:20:53.458Z,8.55
2018-03-14T03:21:19.571Z,8.55
2018-03-14T03:21:45.699Z,8.63
2018-03-14T03:22:11.808Z,8.63
2018-03-14T03:22:37.931Z,8.6
2018-03-14T03:23:04.050Z,8.55
2018-03-14T03:23:30.181Z,8.52
2018-03-14T03:23:56.308Z,8.52
2018-03-14T03:24:22.419Z,8.53
2018-03-14T03:24:48.544Z,8.42
2018-03-14T03:25:14.686Z,8.55
2018-03-14T03:25:40.797Z,8.53
2018-03-14T03:26:06.921Z,8.52
2018-03-14T03:26:33.040Z,8.63
2018-03-14T03:26:59.159Z,8.63
2018-03-14T03:27:25.282Z,8.56
2018-03-14T03:27:51.401Z,8.66
2018-03-14T03:28:17.521Z,8.58
2018-03-14T03:28:43.637Z,8.64
2018-03-14T03:29:09.760Z,8.64
2018-03-14T03:29:35.895Z,8.63
2018-03-14T03:30:02.020Z,8.64
2018-03-14T03:30:28.138Z,8.61
2018-03-14T03:30:54.295Z,8.6
2018-03-14T03:31:20.414Z,8.51
2018-03-14T03:31:46.530Z,8.51
2018-03-14T03:32:12.680Z,8.52
2018-03-14T03:32:38.796Z,8.51
2018-03-14T03:33:04.937Z,8.55
2018-03-14T03:33:31.060Z,8.56
2018-03-14T03:33:57.185Z,8.56
2018-03-14T03:34:23.297Z,8.53
2018-03-14T03:34:49.416Z,8.61
2018-03-14T03:35:15.542Z,8.53
2018-03-14T03:35:41.660Z,8.51
2018-03-14T03:36:07.772Z,8.51
2018-03-14T03:36:33.895Z,8.61
2018-03-14T03:37:00.010Z,8.56
2018-03-14T03:37:26.131Z,8.48
2018-03-14T03:37:52.249Z,8.53
2018-03-14T03:38:18.371Z,8.45
2018-03-14T03:38:44.509Z,8.51
2018-03-14T03:39:10.628Z,8.44
2018-03-14T03:39:36.747Z,8.49
2018-03-14T03:40:02.876Z,8.49
2018-03-14T03:40:29.011Z,8.51
2018-03-14T03:40:55.125Z,8.52
2018-03-14T03:41:21.250Z,8.48
2018-03-14T03:41:47.369Z,8.53
2018-03-14T03:42:13.484Z,8.45
2018-03-14T03:42:39.601Z,8.42
2018-03-14T03:43:05.724Z,8.58
2018-03-14T03:43:31.837Z,8.55
2018-03-14T03:43:57.962Z,8.56
2018-03-14T03:44:24.083Z,8.51
2018-03-14T03:44:50.201Z,8.51
2018-03-14T03:45:16.323Z,8.53
2018-03-14T03:45:42.442Z,8.48
2018-03-14T03:46:08.562Z,8.56
2018-03-14T03:46:34.676Z,8.53
2018-03-14T03:47:00.799Z,8.46
2018-03-14T03:47:26.928Z,8.53
2018-03-14T03:47:53.036Z,8.53
2018-03-14T03:48:19.159Z,8.53
2018-03-14T03:48:45.279Z,8.51
2018-03-14T03:49:11.392Z,8.42
2018-03-14T03:49:37.516Z,8.51
2018-03-14T03:50:03.635Z,8.46
2018-03-14T03:50:29.756Z,8.52
2018-03-14T03:50:55.866Z,8.55
2018-03-14T03:51:21.989Z,8.51
2018-03-14T03:51:48.106Z,8.49
2018-03-14T03:52:14.230Z,8.52
2018-03-14T03:52:40.349Z,8.49
2018-03-14T03:53:06.468Z,8.44
2018-03-14T03:53:32.614Z,8.48
2018-03-14T03:53:58.748Z,8.48
2018-03-14T03:54:24.861Z,8.46
2018-03-14T03:54:50.996Z,8.49
2018-03-14T03:55:17.114Z,8.44
2018-03-14T03:55:43.236Z,8.42
2018-03-14T03:56:09.359Z,8.44
2018-03-14T03:56:35.478Z,8.45
2018-03-14T03:57:01.597Z,8.46
2018-03-14T03:57:27.719Z,8.45
2018-03-14T03:57:53.840Z,8.45
2018-03-14T03:58:19.960Z,8.45
2018-03-14T03:58:46.079Z,8.48
2018-03-14T03:59:12.201Z,8.45
2018-03-14T03:59:38.314Z,8.44
2018-03-14T04:00:04.435Z,8.38
2018-03-14T04:00:30.548Z,8.36
2018-03-14T04:00:56.691Z,8.46
2018-03-14T04:01:22.833Z,8.38
2018-03-14T04:01:48.957Z,8.52
2018-03-14T04:02:15.074Z,8.44
2018-03-14T04:02:41.189Z,8.41
2018-03-14T04:03:07.329Z,8.44
2018-03-14T04:03:33.443Z,8.44
2018-03-14T04:03:59.571Z,8.42
2018-03-14T04:04:25.686Z,8.48
2018-03-14T04:04:51.808Z,8.38
2018-03-14T04:05:17.952Z,8.38
2018-03-14T04:05:44.092Z,8.37
2018-03-14T04:06:10.212Z,8.36
2018-03-14T04:06:36.330Z,8.41
2018-03-14T04:07:02.455Z,8.37
2018-03-14T04:07:28.563Z,8.37
2018-03-14T04:07:54.679Z,8.38
2018-03-14T04:08:20.821Z,8.38
2018-03-14T04:08:46.943Z,8.37
2018-03-14T04:09:13.063Z,8.42
2018-03-14T04:09:39.181Z,8.42
2018-03-14T04:10:05.304Z,8.37
2018-03-14T04:10:31.419Z,8.37
2018-03-14T04:10:57.540Z,8.37
2018-03-14T04:11:23.662Z,8.38
2018-03-14T04:11:49.780Z,8.36
2018-03-14T04:12:15.897Z,8.33
2018-03-14T04:12:42.058Z,8.38
2018-03-14T04:13:08.183Z,8.45
2018-03-14T04:13:34.344Z,8.46
2018-03-14T04:14:00.454Z,8.41
2018-03-14T04:14:26.573Z,8.48
2018-03-14T04:14:52.708Z,8.45
2018-03-14T04:15:18.827Z,8.53
2018-03-14T04:15:44.943Z,8.44
2018-03-14T04:16:11.071Z,8.42
2018-03-14T04:16:37.201Z,8.51
2018-03-14T04:17:03.319Z,8.52
2018-03-14T04:17:29.443Z,8.48
2018-03-14T04:17:55.558Z,8.45
2018-03-14T04:18:21.684Z,8.53
2018-03-14T04:18:47.825Z,8.56
2018-03-14T04:19:13.941Z,8.56
2018-03-14T04:19:40.059Z,8.53
2018-03-14T04:20:06.179Z,8.53
2018-03-14T04:20:32.292Z,8.53
2018-03-14T04:20:58.419Z,8.53
2018-03-14T04:21:24.532Z,8.55
2018-03-14T04:21:50.667Z,8.55
2018-03-14T04:22:16.792Z,8.56
2018-03-14T04:22:42.911Z,8.61
2018-03-14T04:23:09.030Z,8.52
2018-03-14T04:23:35.146Z,8.56
2018-03-14T04:24:01.273Z,8.53
2018-03-14T04:24:27.387Z,8.58
2018-03-14T04:24:53.513Z,8.58
2018-03-14T04:25:19.632Z,8.63
2018-03-14T04:25:45.747Z,8.58
2018-03-14T04:26:11.910Z,8.63
2018-03-14T04:26:38.046Z,8.63
2018-03-14T04:27:04.164Z,8.6
2018-03-14T04:27:30.292Z,8.63
2018-03-14T04:27:56.409Z,8.64
2018-03-14T04:28:22.530Z,8.64
2018-03-14T04:28:48.649Z,8.64
2018-03-14T04:29:14.768Z,8.64
2018-03-14T04:29:40.890Z,8.66
2018-03-14T04:30:07.009Z,8.63
2018-03-14T04:30:33.147Z,8.64
2018-03-14T04:30:59.261Z,8.64
2018-03-14T04:31:25.397Z,8.64
2018-03-14T04:31:51.520Z,8.61
2018-03-14T04:32:17.640Z,8.61
2018-03-14T04:32:43.754Z,8.6
2018-03-14T04:33:09.871Z,8.6
2018-03-14T04:33:35.993Z,8.69
2018-03-14T04:34:02.114Z,8.67
2018-03-14T04:34:28.228Z,8.69
2018-03-14T04:34:54.344Z,8.63
2018-03-14T04:35:20.469Z,8.61
2018-03-14T04:35:46.584Z,8.63
2018-03-14T04:36:12.705Z,8.63
2018-03-14T04:36:38.822Z,8.64
2018-03-14T04:37:04.939Z,8.66
2018-03-14T04:37:31.061Z,8.61
2018-03-14T04:37:57.182Z,8.51
2018-03-14T04:38:23.300Z,8.52
2018-03-14T04:38:49.423Z,8.6
2018-03-14T04:39:15.535Z,8.55
2018-03-14T04:39:41.656Z,8.56
2018-03-14T04:40:07.812Z,8.52
2018-03-14T04:40:33.925Z,8.58
2018-03-14T04:41:00.051Z,8.52
2018-03-14T04:41:26.166Z,8.56
2018-03-14T04:41:52.315Z,8.61
2018-03-14T04:42:18.425Z,8.63
2018-03-14T04:42:44.542Z,8.42
2018-03-14T04:43:10.663Z,8.45
2018-03-14T04:43:36.793Z,8.52
2018-03-14T04:44:02.905Z,8.51
2018-03-14T04:44:29.045Z,8.48
2018-03-14T04:44:55.164Z,8.49
2018-03-14T04:45:21.313Z,8.49
2018-03-14T04:45:47.403Z,8.45
2018-03-14T04:46:13.520Z,8.42
2018-03-14T04:46:39.641Z,8.42
2018-03-14T04:47:05.757Z,8.53
2018-03-14T04:47:31.879Z,8.46
2018-03-14T04:47:58.006Z,8.49
2018-03-14T04:48:24.140Z,8.53
2018-03-14T04:48:50.259Z,8.52
2018-03-14T04:49:16.375Z,8.55
2018-03-14T04:49:42.493Z,8.58
2018-03-14T04:50:08.608Z,8.42
2018-03-14T04:50:34.730Z,8.56
2018-03-14T04:51:00.848Z,8.42
2018-03-14T04:51:26.965Z,8.51
2018-03-14T04:51:53.083Z,8.51
2018-03-14T04:52:19.196Z,8.46
2018-03-14T04:52:45.320Z,8.46
2018-03-14T04:53:11.457Z,8.45
2018-03-14T04:53:37.578Z,8.45
2018-03-14T04:54:03.698Z,8.45
2018-03-14T04:54:29.817Z,8.46
2018-03-14T04:54:55.942Z,8.51
2018-03-14T04:55:22.061Z,8.51
2018-03-14T04:55:48.180Z,8.45
2018-03-14T04:56:14.294Z,8.42
2018-03-14T04:56:40.410Z,8.45
2018-03-14T04:57:06.558Z,8.46
2018-03-14T04:57:32.699Z,8.42
2018-03-14T04:57:58.816Z,8.48
2018-03-14T04:58:24.932Z,8.51
2018-03-14T04:58:51.054Z,8.44
2018-03-14T04:59:17.175Z,8.41
2018-03-14T04:59:43.287Z,8.41
2018-03-14T05:00:09.409Z,8.42
2018-03-14T05:00:35.527Z,8.49
2018-03-14T05:01:01.646Z,8.46
2018-03-14T05:01:27.762Z,8.45
2018-03-14T05:01:53.877Z,8.42
2018-03-14T05:02:20.049Z,8.49
2018-03-14T05:02:46.111Z,8.42
2018-03-14T05:03:12.235Z,8.46
2018-03-14T05:03:38.352Z,8.49
2018-03-14T05:04:04.495Z,8.49
2018-03-14T05:04:30.612Z,8.34
2018-03-14T05:04:56.728Z,8.42
2018-03-14T05:05:22.867Z,8.42
2018-03-14T05:05:49.005Z,8.34
2018-03-14T05:06:15.130Z,8.36
2018-03-14T05:06:41.246Z,8.33
2018-03-14T05:07:07.364Z,8.38
2018-03-14T05:07:33.478Z,8.37
2018-03-14T05:07:59.604Z,8.38
2018-03-14T05:08:25.718Z,8.34
2018-03-14T05:08:51.846Z,8.41
2018-03-14T05:09:17.958Z,8.38
2018-03-14T05:09:44.074Z,8.42
2018-03-14T05:10:10.212Z,8.41
2018-03-14T05:10:36.338Z,8.41
2018-03-14T05:11:02.453Z,8.36
2018-03-14T05:11:28.571Z,8.31
2018-03-14T05:11:54.694Z,8.33
2018-03-14T05:12:20.811Z,8.38
2018-03-14T05:12:46.951Z,8.37
2018-03-14T05:13:13.069Z,8.38
2018-03-14T05:13:39.188Z,8.38
2018-03-14T05:14:05.301Z,8.36
2018-03-14T05:14:31.432Z,8.34
2018-03-14T05:14:57.543Z,8.38
2018-03-14T05:15:23.665Z,8.49
2018-03-14T05:15:49.807Z,8.38
2018-03-14T05:16:15.925Z,8.45
2018-03-14T05:16:42.063Z,8.41
2018-03-14T05:17:08.184Z,8.45
2018-03-14T05:17:34.321Z,8.38
2018-03-14T05:18:00.445Z,8.48
2018-03-14T05:18:26.570Z,8.48
2018-03-14T05:18:52.688Z,8.46
2018-03-14T05:19:18.808Z,8.48
2018-03-14T05:19:44.932Z,8.46
2018-03-14T05:20:11.052Z,8.49
2018-03-14T05:20:37.165Z,8.45
2018-03-14T05:21:03.291Z,8.49
2018-03-14T05:21:29.426Z,8.48
2018-03-14T05:21:55.547Z,8.46
2018-03-14T05:22:21.665Z,8.46
2018-03-14T05:22:47.778Z,8.46
2018-03-14T05:23:13.920Z,8.46
2018-03-14T05:23:40.037Z,8.45
2018-03-14T05:24:06.156Z,8.48
2018-03-14T05:24:32.281Z,8.46
2018-03-14T05:24:58.397Z,8.51
2018-03-14T05:25:24.522Z,8.51
2018-03-14T05:25:50.639Z,8.45
2018-03-14T05:26:16.754Z,8.41
2018-03-14T05:26:42.896Z,8.45
2018-03-14T05:27:09.014Z,8.44
2018-03-14T05:27:35.132Z,8.45
2018-03-14T05:28:01.248Z,8.46
2018-03-14T05:28:27.374Z,8.37
2018-03-14T05:28:53.490Z,8.38
2018-03-14T05:29:19.613Z,8.42
2018-03-14T05:29:45.725Z,8.41
2018-03-14T05:30:11.859Z,8.49
2018-03-14T05:30:37.971Z,8.36
2018-03-14T05:31:04.095Z,8.41
2018-03-14T05:31:30.224Z,8.41
2018-03-14T05:31:56.342Z,8.42
2018-03-14T05:32:22.458Z,8.41
2018-03-14T05:32:48.573Z,8.41
2018-03-14T05:33:14.694Z,8.46
2018-03-14T05:33:40.811Z,8.44
2018-03-14T05:34:06.930Z,8.45
2018-03-14T05:34:33.108Z,8.42
2018-03-14T05:34:59.173Z,8.48
2018-03-14T05:35:25.294Z,8.53
2018-03-14T05:35:51.432Z,8.48
2018-03-14T05:36:17.550Z,8.38
2018-03-14T05:36:43.676Z,8.42
2018-03-14T05:37:09.788Z,8.41
2018-03-14T05:37:35.904Z,8.48
2018-03-14T05:38:02.026Z,8.36
2018-03-14T05:38:28.149Z,8.46
2018-03-14T05:38:54.268Z,8.42
2018-03-14T05:39:20.397Z,8.36
2018-03-14T05:39:46.508Z,8.38
2018-03-14T05:40:12.628Z,8.41
2018-03-14T05:40:38.769Z,8.36
2018-03-14T05:41:04.866Z,8.37
2018-03-14T05:41:30.980Z,8.42
2018-03-14T05:41:57.096Z,8.33
2018-03-14T05:42:23.218Z,8.38
2018-03-14T05:42:49.335Z,8.44
2018-03-14T05:43:15.460Z,8.45
2018-03-14T05:43:41.582Z,8.41
2018-03-14T05:44:07.693Z,8.49
2018-03-14T05:44:33.809Z,8.49
2018-03-14T05:44:59.931Z,8.45
2018-03-14T05:45:26.052Z,8.45
2018-03-14T05:45:52.174Z,8.38
2018-03-14T05:46:18.292Z,8.38
2018-03-14T05:46:44.409Z,8.37
2018-03-14T05:47:10.545Z,8.37
2018-03-14T05:47:36.692Z,8.33
2018-03-14T05:48:02.829Z,8.45